createdAt,value
2022-10-13T00:00:09.625Z,22.33
2022-10-13T00:02:36.284Z,22.70
2022-10-13T00:05:02.866Z,19.13
2022-10-13T00:07:29.479Z,17.33
2022-10-13T00:09:56.075Z,17.83
2022-10-13T00:12:22.708Z,17.02
2022-10-13T00:14:49.343Z,15.57
2022-10-13T00:17:15.966Z,18.25
2022-10-13T00:19:42.656Z,16.95
2022-10-13T00:22:09.272Z,19.05
2022-10-13T00:24:35.913Z,16.45
2022-10-13T00:27:02.486Z,17.25
2022-10-13T00:29:29.119Z,18.48
2022-10-13T00:31:55.706Z,14.68
2022-10-13T00:34:22.310Z,18.95
2022-10-13T00:36:48.921Z,14.32
2022-10-13T00:39:15.544Z,18.23
2022-10-13T00:41:44.198Z,16.90
2022-10-13T00:44:41.407Z,16.17
2022-10-13T00:47:08.604Z,18.48
2022-10-13T00:49:38.572Z,19.73
2022-10-13T00:52:05.185Z,22.23
2022-10-13T00:54:31.896Z,16.88
2022-10-13T00:56:58.542Z,14.60
2022-10-13T00:59:29.201Z,17.60
2022-10-13T01:01:59.396Z,18.90
2022-10-13T01:04:33.965Z,16.92
2022-10-13T01:07:01.581Z,31.48
2022-10-13T01:09:35.085Z,16.83
2022-10-13T01:12:20.593Z,16.67
2022-10-13T01:14:56.462Z,18.88
2022-10-13T01:17:36.432Z,22.80
2022-10-13T01:20:19.390Z,18.65
2022-10-13T01:22:56.799Z,19.13
2022-10-13T01:25:53.805Z,17.08
2022-10-13T01:28:51.017Z,19.13
2022-10-13T01:31:28.640Z,17.52
2022-10-13T01:34:02.662Z,19.15
2022-10-13T01:36:51.116Z,15.40
2022-10-13T01:39:38.239Z,19.05
2022-10-13T01:42:13.279Z,20.30
2022-10-13T01:44:46.885Z,20.92
2022-10-13T01:47:16.097Z,26.60
2022-10-13T01:49:43.685Z,20.63
2022-10-13T01:52:16.909Z,23.45
2022-10-13T01:54:48.394Z,26.30
2022-10-13T01:57:32.531Z,17.08
2022-10-13T02:00:02.136Z,16.45
2022-10-13T02:02:35.084Z,13.45
2022-10-13T02:05:09.185Z,18.23
2022-10-13T02:07:40.575Z,17.13
2022-10-13T02:10:20.346Z,17.27
2022-10-13T02:12:55.917Z,23.88
2022-10-13T02:15:29.027Z,31.55
2022-10-13T02:17:56.168Z,19.75
2022-10-13T02:20:23.046Z,29.77
2022-10-13T02:22:57.480Z,27.92
2022-10-13T02:25:25.133Z,21.70
2022-10-13T02:27:53.056Z,16.65
2022-10-13T02:30:23.088Z,23.45
2022-10-13T02:32:49.752Z,20.67
2022-10-13T02:35:19.629Z,25.00
2022-10-13T02:37:46.324Z,21.60
2022-10-13T02:40:13.560Z,19.85
2022-10-13T02:42:40.311Z,22.05
2022-10-13T02:45:07.555Z,18.75
2022-10-13T02:47:34.278Z,20.10
2022-10-13T02:50:00.896Z,28.05
2022-10-13T02:52:27.480Z,21.58
2022-10-13T02:54:54.169Z,22.05
2022-10-13T02:57:20.754Z,21.50
2022-10-13T02:59:47.336Z,24.63
2022-10-13T03:02:14.262Z,17.05
2022-10-13T03:04:40.869Z,19.95
2022-10-13T03:07:07.575Z,31.55
2022-10-13T03:09:35.271Z,25.15
2022-10-13T03:12:02.209Z,23.35
2022-10-13T03:14:28.859Z,27.38
2022-10-13T03:16:55.461Z,28.77
2022-10-13T03:19:22.210Z,26.80
2022-10-13T03:21:48.827Z,31.27
2022-10-13T03:24:15.648Z,22.80
2022-10-13T03:26:42.346Z,27.17
2022-10-13T03:29:14.361Z,20.30
2022-10-13T03:31:41.717Z,26.38
2022-10-13T03:34:09.569Z,30.88
2022-10-13T03:36:36.211Z,29.98
2022-10-13T03:39:02.896Z,29.20
2022-10-13T03:41:29.522Z,29.70
2022-10-13T03:43:56.186Z,26.63
2022-10-13T03:46:26.519Z,34.03
2022-10-13T03:48:53.181Z,31.73
2022-10-13T03:51:21.823Z,30.17
2022-10-13T03:53:49.723Z,22.77
2022-10-13T03:56:20.638Z,26.60
2022-10-13T03:58:47.516Z,32.33
2022-10-13T04:01:14.487Z,25.85
2022-10-13T04:03:41.179Z,28.02
2022-10-13T04:06:07.946Z,29.30
2022-10-13T04:08:34.685Z,26.40
2022-10-13T04:11:04.762Z,34.35
2022-10-13T04:13:32.324Z,29.42
2022-10-13T04:16:06.594Z,34.13
2022-10-13T04:18:33.358Z,27.50
2022-10-13T04:21:00.293Z,32.65
2022-10-13T04:23:27.044Z,29.17
2022-10-13T04:25:53.716Z,25.00
2022-10-13T04:28:20.396Z,28.58
2022-10-13T04:30:49.623Z,29.80
2022-10-13T04:33:16.788Z,30.30
2022-10-13T04:35:43.504Z,36.42
2022-10-13T04:38:10.134Z,35.13
2022-10-13T04:40:36.954Z,36.25
2022-10-13T04:43:03.730Z,31.10
2022-10-13T04:45:30.480Z,32.05
2022-10-13T04:47:57.106Z,32.17
2022-10-13T04:50:26.996Z,27.40
2022-10-13T04:52:53.661Z,38.40
2022-10-13T04:55:20.381Z,28.83
2022-10-13T04:57:46.989Z,27.27
2022-10-13T05:00:14.068Z,28.08
2022-10-13T05:02:40.687Z,38.05
2022-10-13T05:05:10.923Z,29.65
2022-10-13T05:07:37.593Z,32.80
2022-10-13T05:10:05.094Z,36.22
2022-10-13T05:12:31.854Z,27.20
2022-10-13T05:14:59.000Z,33.47
2022-10-13T05:17:25.600Z,27.65
2022-10-13T05:19:52.724Z,30.55
2022-10-13T05:22:19.758Z,29.15
2022-10-13T05:24:46.626Z,30.67
2022-10-13T05:27:13.914Z,31.90
2022-10-13T05:29:40.970Z,27.40
2022-10-13T05:32:09.583Z,35.30
2022-10-13T05:34:36.410Z,27.88
2022-10-13T05:37:03.167Z,26.75
2022-10-13T05:39:29.788Z,29.60
2022-10-13T05:41:56.440Z,34.33
2022-10-13T05:44:24.333Z,26.33
2022-10-13T05:46:50.937Z,29.73
2022-10-13T05:49:17.557Z,32.17
2022-10-13T05:51:48.919Z,24.85
2022-10-13T05:54:21.599Z,24.10
2022-10-13T05:56:54.272Z,30.95
2022-10-13T05:59:26.931Z,33.28
2022-10-13T06:01:55.109Z,35.25
2022-10-13T06:04:30.219Z,30.80
2022-10-13T06:06:57.137Z,31.98
2022-10-13T06:09:23.790Z,31.98
2022-10-13T06:11:50.400Z,31.73
2022-10-13T06:14:17.139Z,29.52
2022-10-13T06:16:43.749Z,27.55
2022-10-13T06:19:10.389Z,33.78
2022-10-13T06:21:37.067Z,33.72
2022-10-13T06:24:03.969Z,30.55
2022-10-13T06:26:30.606Z,30.65
2022-10-13T06:28:59.722Z,27.88
2022-10-13T06:31:27.105Z,33.38
2022-10-13T06:33:54.023Z,29.23
2022-10-13T06:36:20.700Z,33.10
2022-10-13T06:38:47.392Z,30.58
2022-10-13T06:41:14.423Z,39.15
2022-10-13T06:43:41.531Z,32.38
2022-10-13T06:46:08.551Z,27.17
2022-10-13T06:48:35.513Z,34.03
2022-10-13T06:51:04.615Z,29.35
2022-10-13T06:53:31.702Z,32.58
2022-10-13T06:55:59.830Z,27.95
2022-10-13T06:58:26.966Z,33.35
2022-10-13T07:00:54.427Z,25.35
2022-10-13T07:03:21.945Z,29.55
2022-10-13T07:05:48.612Z,36.60
2022-10-13T07:08:15.845Z,24.80
2022-10-13T07:10:42.747Z,27.58
2022-10-13T07:13:09.425Z,32.92
2022-10-13T07:15:39.576Z,36.22
2022-10-13T07:18:06.754Z,38.45
2022-10-13T07:20:33.998Z,29.25
2022-10-13T07:23:00.837Z,35.90
2022-10-13T07:25:27.686Z,27.08
2022-10-13T07:27:54.397Z,34.55
2022-10-13T07:30:22.050Z,34.80
2022-10-13T07:32:49.371Z,34.83
2022-10-13T07:35:16.416Z,38.35
2022-10-13T07:37:43.051Z,29.20
2022-10-13T07:40:10.325Z,31.42
2022-10-13T07:42:37.087Z,37.33
2022-10-13T07:45:04.194Z,45.70
2022-10-13T07:47:31.099Z,34.30
2022-10-13T07:49:57.797Z,40.65
2022-10-13T07:52:24.458Z,40.88
2022-10-13T07:54:51.421Z,39.10
2022-10-13T07:57:18.463Z,41.67
2022-10-13T07:59:45.230Z,40.75
2022-10-13T08:02:11.815Z,45.28
2022-10-13T08:04:39.120Z,44.40
2022-10-13T08:07:06.732Z,35.75
2022-10-13T08:09:36.488Z,41.83
2022-10-13T08:12:03.653Z,35.33
2022-10-13T08:14:31.352Z,34.45
2022-10-13T08:16:58.260Z,36.63
2022-10-13T08:19:26.596Z,30.75
2022-10-13T08:21:58.141Z,33.95
2022-10-13T08:24:26.815Z,26.50
2022-10-13T08:26:53.448Z,27.27
2022-10-13T08:29:21.791Z,31.33
2022-10-13T08:34:22.670Z,33.45
2022-10-13T08:36:52.997Z,32.58
2022-10-13T08:39:20.875Z,32.92
2022-10-13T08:41:47.925Z,36.72
2022-10-13T08:47:30.199Z,33.45
2022-10-13T08:50:01.060Z,38.47
2022-10-13T08:52:47.830Z,38.60
2022-10-13T08:55:29.711Z,33.38
2022-10-13T08:57:56.518Z,45.67
2022-10-13T09:00:23.168Z,43.08
2022-10-13T09:02:50.780Z,34.55
2022-10-13T09:05:39.556Z,35.70
2022-10-13T09:08:17.049Z,31.63
2022-10-13T09:10:49.408Z,39.45
2022-10-13T09:13:16.059Z,29.33
2022-10-13T09:15:45.058Z,37.53
2022-10-13T09:18:13.798Z,40.70
2022-10-13T09:20:41.152Z,39.28
2022-10-13T09:23:17.698Z,39.88
2022-10-13T09:25:48.423Z,40.47
2022-10-13T09:28:20.622Z,39.35
2022-10-13T09:30:47.788Z,41.70
2022-10-13T09:33:20.024Z,40.67
2022-10-13T09:36:03.266Z,42.75
2022-10-13T09:38:30.028Z,41.15
2022-10-13T09:41:04.774Z,30.80
2022-10-13T09:43:37.226Z,49.03
2022-10-13T09:46:18.999Z,46.85
2022-10-13T09:48:49.636Z,44.00
2022-10-13T09:51:40.182Z,38.08
2022-10-13T09:54:26.019Z,44.15
2022-10-13T09:56:59.552Z,42.20
2022-10-13T09:59:36.883Z,46.00
2022-10-13T10:02:28.433Z,37.47
2022-10-13T10:05:00.012Z,40.97
2022-10-13T10:07:31.790Z,46.97
2022-10-13T10:10:06.483Z,40.88
2022-10-13T10:12:37.330Z,50.85
2022-10-13T10:15:17.207Z,43.88
2022-10-13T10:17:52.860Z,37.88
2022-10-13T10:20:50.648Z,40.78
2022-10-13T10:23:43.388Z,33.30
2022-10-13T10:26:23.172Z,33.72
2022-10-13T10:29:06.884Z,46.97
2022-10-13T10:31:54.158Z,39.53
2022-10-13T10:34:34.995Z,34.70
2022-10-13T10:37:25.124Z,36.80
2022-10-13T10:40:04.887Z,31.05
2022-10-13T10:43:02.126Z,31.67
2022-10-13T10:48:02.875Z,36.03
2022-10-13T10:50:32.021Z,28.92
2022-10-13T10:53:03.146Z,26.27
2022-10-13T10:55:47.932Z,27.45
2022-10-13T10:58:29.857Z,27.20
2022-10-13T11:01:02.649Z,36.58
2022-10-13T11:03:54.769Z,33.85
2022-10-13T11:06:28.325Z,25.15
2022-10-13T11:08:55.404Z,35.35
2022-10-13T11:11:26.584Z,30.58
2022-10-13T11:14:21.604Z,34.15
2022-10-13T11:17:10.834Z,29.30
2022-10-13T11:19:39.247Z,42.22
2022-10-13T11:22:05.870Z,34.40
2022-10-13T11:24:33.482Z,28.58
2022-10-13T11:27:15.357Z,25.90
2022-10-13T11:29:55.895Z,27.15
2022-10-13T11:32:42.522Z,24.98
2022-10-13T11:35:10.140Z,20.90
2022-10-13T11:38:09.278Z,25.52
2022-10-13T11:40:57.144Z,24.95
2022-10-13T11:43:40.186Z,30.08
2022-10-13T11:46:19.894Z,27.45
2022-10-13T11:49:02.948Z,20.73
2022-10-13T11:51:44.937Z,30.00
2022-10-13T11:54:34.187Z,28.77
2022-10-13T11:57:00.987Z,25.77
2022-10-13T11:59:31.117Z,26.25
2022-10-13T12:02:00.365Z,32.63
2022-10-13T12:04:28.292Z,19.80
2022-10-13T12:06:59.465Z,22.13
2022-10-13T12:09:27.481Z,19.20
2022-10-13T12:12:02.450Z,17.33
2022-10-13T12:14:35.512Z,27.13
2022-10-13T12:17:02.534Z,26.23
2022-10-13T12:19:32.225Z,24.67
2022-10-13T12:22:01.448Z,27.90
2022-10-13T12:24:30.356Z,24.15
2022-10-13T12:26:58.521Z,24.23
2022-10-13T12:29:29.438Z,20.63
2022-10-13T12:31:58.591Z,21.35
2022-10-13T12:34:29.170Z,23.45
2022-10-13T12:37:01.169Z,22.75
2022-10-13T12:39:31.287Z,21.27
2022-10-13T12:41:58.505Z,18.88
2022-10-13T12:44:28.441Z,21.92
2022-10-13T12:46:59.086Z,24.35
2022-10-13T12:49:28.528Z,26.40
2022-10-13T12:52:14.806Z,16.33
2022-10-13T12:54:52.378Z,22.95
2022-10-13T12:57:35.337Z,23.30
2022-10-13T13:00:04.528Z,30.30
2022-10-13T13:02:32.672Z,28.02
2022-10-13T13:04:59.451Z,28.33
2022-10-13T13:07:31.373Z,21.20
2022-10-13T13:10:01.059Z,19.42
2022-10-13T13:12:29.454Z,20.75
2022-10-13T13:14:57.341Z,18.38
2022-10-13T13:20:29.587Z,17.38
2022-10-13T13:22:56.246Z,22.38
2022-10-13T13:25:23.770Z,28.90
2022-10-13T13:27:50.908Z,22.90
2022-10-13T13:30:20.618Z,23.48
2022-10-13T13:32:47.432Z,28.25
2022-10-13T13:35:14.216Z,29.23
2022-10-13T13:37:44.571Z,67.50
2022-10-13T13:40:17.298Z,21.77
2022-10-13T13:42:44.004Z,21.25
2022-10-13T13:45:15.319Z,35.45
2022-10-13T13:47:42.424Z,21.20
2022-10-13T13:50:24.460Z,22.63
2022-10-13T13:52:51.325Z,25.92
2022-10-13T13:55:18.588Z,24.00
2022-10-13T13:57:45.819Z,26.15
2022-10-13T14:00:14.320Z,21.80
2022-10-13T14:02:42.802Z,24.13
2022-10-13T14:05:11.152Z,23.58
2022-10-13T14:07:38.555Z,21.80
2022-10-13T14:10:07.217Z,21.52
2022-10-13T14:12:34.269Z,23.50
2022-10-13T14:15:01.042Z,24.67
2022-10-13T14:17:28.680Z,23.13
2022-10-13T14:19:55.521Z,26.05
2022-10-13T14:22:23.047Z,30.73
2022-10-13T14:24:50.149Z,20.38
2022-10-13T14:27:16.809Z,26.60
2022-10-13T14:29:43.558Z,27.75
2022-10-13T14:32:10.152Z,24.17
2022-10-13T14:34:36.804Z,22.65
2022-10-13T14:37:03.470Z,26.08
2022-10-13T14:39:30.177Z,26.35
2022-10-13T14:41:56.866Z,20.63
2022-10-13T14:44:23.541Z,27.58
2022-10-13T14:46:50.183Z,25.30
2022-10-13T14:49:16.816Z,26.88
2022-10-13T14:51:43.823Z,25.85
2022-10-13T14:54:10.810Z,22.02
2022-10-13T14:56:37.490Z,28.10
2022-10-13T14:59:06.040Z,25.73
2022-10-13T15:01:33.600Z,29.27
2022-10-13T15:04:01.642Z,24.80
2022-10-13T15:06:28.928Z,24.35
2022-10-13T15:08:55.627Z,26.83
2022-10-13T15:11:22.715Z,27.00
2022-10-13T15:13:49.381Z,23.85
2022-10-13T15:16:18.755Z,29.17
2022-10-13T15:18:46.040Z,24.85
2022-10-13T15:21:13.191Z,26.65
2022-10-13T15:23:40.022Z,30.58
2022-10-13T15:26:07.066Z,23.58
2022-10-13T15:28:37.758Z,30.55
2022-10-13T15:31:04.981Z,25.30
2022-10-13T15:33:32.253Z,25.58
2022-10-13T15:35:59.663Z,24.65
2022-10-13T15:38:26.796Z,26.02
2022-10-13T15:40:58.455Z,23.38
2022-10-13T15:43:25.101Z,30.85
2022-10-13T15:45:59.643Z,25.33
2022-10-13T15:48:27.320Z,23.08
2022-10-13T15:50:54.028Z,23.55
2022-10-13T15:53:20.673Z,32.53
2022-10-13T15:55:48.267Z,31.63
2022-10-13T15:58:15.399Z,32.70
2022-10-13T16:00:43.016Z,29.15
2022-10-13T16:03:15.198Z,30.10
2022-10-13T16:05:42.905Z,27.83
2022-10-13T16:08:09.605Z,23.08
2022-10-13T16:10:39.760Z,26.58
2022-10-13T16:13:06.541Z,29.52
2022-10-13T16:15:33.461Z,22.58
2022-10-13T16:18:00.089Z,23.80
2022-10-13T16:20:34.108Z,23.45
2022-10-13T16:23:01.424Z,24.83
2022-10-13T16:25:29.419Z,28.92
2022-10-13T16:27:56.599Z,29.10
2022-10-13T16:30:23.205Z,25.80
2022-10-13T16:32:49.930Z,25.77
2022-10-13T16:35:16.564Z,28.58
2022-10-13T16:37:43.182Z,28.75
2022-10-13T16:40:10.297Z,26.02
2022-10-13T16:42:36.961Z,27.40
2022-10-13T16:45:03.895Z,25.33
2022-10-13T16:47:30.543Z,23.80
2022-10-13T16:49:57.279Z,27.85
2022-10-13T16:52:23.934Z,27.27
2022-10-13T16:54:53.760Z,30.45
2022-10-13T16:57:20.739Z,27.98
2022-10-13T16:59:47.624Z,31.23
2022-10-13T17:02:15.262Z,29.40
2022-10-13T17:04:42.549Z,25.10
2022-10-13T17:07:09.222Z,23.90
2022-10-13T17:09:41.381Z,25.58
2022-10-13T17:12:08.044Z,29.42
2022-10-13T17:14:34.700Z,24.08
2022-10-13T17:17:01.413Z,32.65
2022-10-13T17:19:28.098Z,31.50
2022-10-13T17:22:04.463Z,32.29
2022-10-13T17:24:31.302Z,25.70
2022-10-13T17:26:57.970Z,25.55
2022-10-13T17:29:24.733Z,31.50
2022-10-13T17:31:51.346Z,26.40
2022-10-13T17:34:17.935Z,24.80
2022-10-13T17:36:44.596Z,30.60
2022-10-13T17:39:11.456Z,22.60
2022-10-13T17:41:38.132Z,28.67
2022-10-13T17:44:04.788Z,28.52
2022-10-13T17:46:37.515Z,29.38
2022-10-13T17:49:06.248Z,27.02
2022-10-13T17:51:33.049Z,25.20
2022-10-13T17:54:00.755Z,23.77
2022-10-13T17:56:28.544Z,22.27
2022-10-13T17:58:55.205Z,25.92
2022-10-13T18:01:25.697Z,32.65
2022-10-13T18:03:55.929Z,26.77
2022-10-13T18:06:23.059Z,33.50
2022-10-13T18:08:51.025Z,29.45
2022-10-13T18:11:21.275Z,35.13
2022-10-13T18:13:48.333Z,27.25
2022-10-13T18:16:18.230Z,36.75
2022-10-13T18:18:46.610Z,33.58
2022-10-13T18:21:16.459Z,25.55
2022-10-13T18:23:43.617Z,34.22
2022-10-13T18:26:13.684Z,33.42
2022-10-13T18:28:43.371Z,29.08
2022-10-13T18:31:13.042Z,25.60
2022-10-13T18:33:40.550Z,29.80
2022-10-13T18:36:24.268Z,29.20
2022-10-13T18:38:52.066Z,29.63
2022-10-13T18:41:20.926Z,33.92
2022-10-13T18:43:47.571Z,23.48
2022-10-13T18:46:14.341Z,29.98
2022-10-13T18:48:41.276Z,29.38
2022-10-13T18:51:12.312Z,34.30
2022-10-13T18:53:41.679Z,39.42
2022-10-13T18:56:11.830Z,36.20
2022-10-13T18:58:38.907Z,33.13
2022-10-13T19:01:09.098Z,31.00
2022-10-13T19:03:38.314Z,32.13
2022-10-13T19:06:07.684Z,28.00
2022-10-13T19:08:34.928Z,31.15
2022-10-13T19:11:01.913Z,27.20
2022-10-13T19:13:28.944Z,28.95
2022-10-13T19:16:04.634Z,29.70
2022-10-13T19:18:31.513Z,30.27
2022-10-13T19:20:58.135Z,34.60
2022-10-13T19:23:24.863Z,37.55
2022-10-13T19:25:51.760Z,28.55
2022-10-13T19:28:18.769Z,34.65
2022-10-13T19:30:45.811Z,35.40
2022-10-13T19:33:14.340Z,36.33
2022-10-13T19:35:42.675Z,30.70
2022-10-13T19:38:10.078Z,26.73
2022-10-13T19:40:42.151Z,25.17
2022-10-13T19:43:10.105Z,33.38
2022-10-13T19:45:36.816Z,36.22
2022-10-13T19:48:03.557Z,27.15
2022-10-13T19:50:33.771Z,26.90
2022-10-13T19:53:00.493Z,33.17
2022-10-13T19:55:27.170Z,40.25
2022-10-13T19:57:53.823Z,30.60
2022-10-13T20:00:20.460Z,32.00
2022-10-13T20:02:47.112Z,36.83
2022-10-13T20:05:13.767Z,31.23
2022-10-13T20:07:40.411Z,24.67
2022-10-13T20:10:07.244Z,39.17
2022-10-13T20:12:33.910Z,26.65
2022-10-13T20:15:01.034Z,26.42
2022-10-13T20:17:27.860Z,30.42
2022-10-13T20:19:54.508Z,31.25
2022-10-13T20:22:21.204Z,30.08
2022-10-13T20:24:47.829Z,39.08
2022-10-13T20:27:16.908Z,29.77
2022-10-13T20:29:43.579Z,36.90
2022-10-13T20:32:10.266Z,31.98
2022-10-13T20:34:36.955Z,33.08
2022-10-13T20:37:03.598Z,36.67
2022-10-13T20:39:30.205Z,33.88
2022-10-13T20:41:56.842Z,33.63
2022-10-13T20:44:23.517Z,26.63
2022-10-13T20:46:50.177Z,28.33
2022-10-13T20:49:16.908Z,29.55
2022-10-13T20:51:44.094Z,28.95
2022-10-13T20:54:13.142Z,32.53
2022-10-13T20:56:43.223Z,36.85
2022-10-13T20:59:12.289Z,31.05
2022-10-13T21:01:39.117Z,32.40
2022-10-13T21:04:07.257Z,34.67
2022-10-13T21:06:35.707Z,30.58
2022-10-13T21:09:04.592Z,30.45
2022-10-13T21:11:34.621Z,31.92
2022-10-13T21:14:06.796Z,28.15
2022-10-13T21:16:34.289Z,30.67
2022-10-13T21:19:01.603Z,27.95
2022-10-13T21:21:31.312Z,26.83
2022-10-13T21:24:00.877Z,27.98
2022-10-13T21:26:30.533Z,39.78
2022-10-13T21:28:58.159Z,38.65
2022-10-13T21:31:26.994Z,32.05
2022-10-13T21:33:54.706Z,31.35
2022-10-13T21:36:25.093Z,37.60
2022-10-13T21:38:54.936Z,31.88
2022-10-13T21:41:21.955Z,29.65
2022-10-13T21:43:50.093Z,37.65
2022-10-13T21:46:19.722Z,37.83
2022-10-13T21:48:47.861Z,31.17
2022-10-13T21:51:18.757Z,34.55
2022-10-13T21:53:51.777Z,29.88
2022-10-13T21:56:19.324Z,31.83
2022-10-13T21:58:47.346Z,32.05
2022-10-13T22:01:14.059Z,30.25
2022-10-13T22:03:41.716Z,31.83
2022-10-13T22:06:18.248Z,39.45
2022-10-13T22:08:46.937Z,28.95
2022-10-13T22:11:14.021Z,31.52
2022-10-13T22:13:40.878Z,39.05
2022-10-13T22:16:11.224Z,34.00
2022-10-13T22:18:37.857Z,33.33
2022-10-13T22:21:07.659Z,32.08
2022-10-13T22:23:34.425Z,36.15
2022-10-13T22:26:01.041Z,31.30
2022-10-13T22:28:29.021Z,29.00
2022-10-13T22:30:57.883Z,35.70
2022-10-13T22:33:24.532Z,48.08
2022-10-13T22:35:51.173Z,34.97
2022-10-13T22:38:17.792Z,39.13
2022-10-13T22:40:44.386Z,36.58
2022-10-13T22:43:10.979Z,39.40
2022-10-13T22:45:37.600Z,39.78
2022-10-13T22:48:04.488Z,42.42
2022-10-13T22:50:31.098Z,29.40
2022-10-13T22:52:57.728Z,37.90
2022-10-13T22:55:24.339Z,37.90
2022-10-13T22:57:51.038Z,32.25
2022-10-13T23:00:17.973Z,37.60
2022-10-13T23:02:44.636Z,41.75
2022-10-13T23:05:11.251Z,33.40
2022-10-13T23:07:37.862Z,37.85
2022-10-13T23:10:04.768Z,36.45
2022-10-13T23:12:31.372Z,39.83
2022-10-13T23:14:58.067Z,37.40
2022-10-13T23:17:24.917Z,34.47
2022-10-13T23:19:51.606Z,40.85
2022-10-13T23:22:18.210Z,40.88
2022-10-13T23:24:44.860Z,35.15
2022-10-13T23:27:11.481Z,42.50
2022-10-13T23:29:38.086Z,42.22
2022-10-13T23:32:09.774Z,42.08
2022-10-13T23:34:36.668Z,48.45
2022-10-13T23:37:03.320Z,40.63
2022-10-13T23:39:29.938Z,46.13
2022-10-13T23:41:56.539Z,41.88
2022-10-13T23:44:23.316Z,39.45
2022-10-13T23:46:49.966Z,39.53
2022-10-13T23:49:16.613Z,48.00
2022-10-13T23:51:44.257Z,46.60
2022-10-13T23:54:11.207Z,51.05
2022-10-13T23:56:38.562Z,46.72
2022-10-13T23:59:05.920Z,52.50
